sensor_id;sensor_type;location;lat;lon;timestamp;temperature;humidity
3312;DHT22;1668;49.648;8.570;2023-09-18T00:02:07;23.30;85.30
3312;DHT22;1668;49.648;8.570;2023-09-18T00:04:34;23.30;82.80
3312;DHT22;1668;49.648;8.570;2023-09-18T00:07:00;23.30;99.90
3312;DHT22;1668;49.648;8.570;2023-09-18T00:09:28;23.30;99.90
3312;DHT22;1668;49.648;8.570;2023-09-18T00:11:54;23.30;1.00
3312;DHT22;1668;49.648;8.570;2023-09-18T00:14:22;23.30;1.00
3312;DHT22;1668;49.648;8.570;2023-09-18T00:16:49;23.20;1.00
3312;DHT22;1668;49.648;8.570;2023-09-18T00:19:17;23.30;99.90
3312;DHT22;1668;49.648;8.570;2023-09-18T00:21:44;23.20;88.60
3312;DHT22;1668;49.648;8.570;2023-09-18T00:24:10;23.20;90.20
3312;DHT22;1668;49.648;8.570;2023-09-18T00:26:37;23.20;90.30
3312;DHT22;1668;49.648;8.570;2023-09-18T00:29:04;23.20;90.60
3312;DHT22;1668;49.648;8.570;2023-09-18T00:31:32;23.10;90.70
3312;DHT22;1668;49.648;8.570;2023-09-18T00:33:59;23.10;91.00
3312;DHT22;1668;49.648;8.570;2023-09-18T00:36:25;23.10;91.30
3312;DHT22;1668;49.648;8.570;2023-09-18T00:38:52;23.10;91.60
3312;DHT22;1668;49.648;8.570;2023-09-18T00:41:19;23.00;92.20
3312;DHT22;1668;49.648;8.570;2023-09-18T00:43:45;23.00;92.20
3312;DHT22;1668;49.648;8.570;2023-09-18T00:46:12;23.00;92.40
3312;DHT22;1668;49.648;8.570;2023-09-18T00:48:41;22.90;92.30
3312;DHT22;1668;49.648;8.570;2023-09-18T00:51:08;22.90;93.30
3312;DHT22;1668;49.648;8.570;2023-09-18T00:53:37;22.90;93.40
3312;DHT22;1668;49.648;8.570;2023-09-18T00:56:04;22.80;93.40
3312;DHT22;1668;49.648;8.570;2023-09-18T00:58:31;22.80;94.50
3312;DHT22;1668;49.648;8.570;2023-09-18T01:00:59;22.70;95.80
3312;DHT22;1668;49.648;8.570;2023-09-18T01:03:26;22.70;97.00
3312;DHT22;1668;49.648;8.570;2023-09-18T01:05:55;22.70;97.30
3312;DHT22;1668;49.648;8.570;2023-09-18T01:08:22;22.70;96.90
3312;DHT22;1668;49.648;8.570;2023-09-18T01:10:56;22.60;97.70
3312;DHT22;1668;49.648;8.570;2023-09-18T01:13:29;22.60;98.00
3312;DHT22;1668;49.648;8.570;2023-09-18T01:16:03;22.50;98.30
3312;DHT22;1668;49.648;8.570;2023-09-18T01:18:33;22.50;99.10
3312;DHT22;1668;49.648;8.570;2023-09-18T01:21:01;22.60;99.60
3312;DHT22;1668;49.648;8.570;2023-09-18T01:23:29;22.50;98.90
3312;DHT22;1668;49.648;8.570;2023-09-18T01:25:56;22.50;98.60
3312;DHT22;1668;49.648;8.570;2023-09-18T01:28:23;22.50;98.80
3312;DHT22;1668;49.648;8.570;2023-09-18T01:30:49;22.50;99.10
3312;DHT22;1668;49.648;8.570;2023-09-18T01:33:17;22.40;98.30
3312;DHT22;1668;49.648;8.570;2023-09-18T01:35:45;22.40;98.90
3312;DHT22;1668;49.648;8.570;2023-09-18T01:38:12;22.40;99.90
3312;DHT22;1668;49.648;8.570;2023-09-18T01:40:41;22.40;99.90
3312;DHT22;1668;49.648;8.570;2023-09-18T01:43:08;22.40;99.90
3312;DHT22;1668;49.648;8.570;2023-09-18T01:45:36;22.40;99.90
3312;DHT22;1668;49.648;8.570;2023-09-18T01:48:04;22.40;99.90
3312;DHT22;1668;49.648;8.570;2023-09-18T01:50:31;22.30;99.90
3312;DHT22;1668;49.648;8.570;2023-09-18T01:52:58;22.20;99.90
3312;DHT22;1668;49.648;8.570;2023-09-18T01:55:25;22.20;99.90
3312;DHT22;1668;49.648;8.570;2023-09-18T01:57:55;22.20;99.90
3312;DHT22;1668;49.648;8.570;2023-09-18T02:00:22;22.10;99.90
3312;DHT22;1668;49.648;8.570;2023-09-18T02:02:49;22.00;99.90
3312;DHT22;1668;49.648;8.570;2023-09-18T02:05:16;21.80;99.90
3312;DHT22;1668;49.648;8.570;2023-09-18T02:07:43;21.80;99.90
3312;DHT22;1668;49.648;8.570;2023-09-18T02:10:09;21.60;99.90
3312;DHT22;1668;49.648;8.570;2023-09-18T02:12:38;21.50;99.90
3312;DHT22;1668;49.648;8.570;2023-09-18T02:15:07;21.60;99.90
3312;DHT22;1668;49.648;8.570;2023-09-18T02:17:36;21.60;99.90
3312;DHT22;1668;49.648;8.570;2023-09-18T02:20:04;21.50;99.90
3312;DHT22;1668;49.648;8.570;2023-09-18T02:22:37;21.50;99.90
3312;DHT22;1668;49.648;8.570;2023-09-18T02:25:06;21.40;99.90
3312;DHT22;1668;49.648;8.570;2023-09-18T02:27:35;21.40;99.90
3312;DHT22;1668;49.648;8.570;2023-09-18T02:30:01;21.40;99.90
3312;DHT22;1668;49.648;8.570;2023-09-18T02:32:29;21.40;99.90
3312;DHT22;1668;49.648;8.570;2023-09-18T02:34:57;21.40;99.90
3312;DHT22;1668;49.648;8.570;2023-09-18T02:37:23;21.30;99.90
3312;DHT22;1668;49.648;8.570;2023-09-18T02:39:50;21.30;99.90
3312;DHT22;1668;49.648;8.570;2023-09-18T02:42:17;21.40;99.90
3312;DHT22;1668;49.648;8.570;2023-09-18T02:44:44;21.30;99.90
3312;DHT22;1668;49.648;8.570;2023-09-18T02:47:10;21.20;99.90
3312;DHT22;1668;49.648;8.570;2023-09-18T02:49:39;21.20;99.90
3312;DHT22;1668;49.648;8.570;2023-09-18T02:52:06;21.20;99.90
3312;DHT22;1668;49.648;8.570;2023-09-18T02:54:32;21.20;99.90
3312;DHT22;1668;49.648;8.570;2023-09-18T02:56:59;21.20;99.90
3312;DHT22;1668;49.648;8.570;2023-09-18T02:59:26;21.20;99.90
3312;DHT22;1668;49.648;8.570;2023-09-18T03:01:52;21.20;99.90
3312;DHT22;1668;49.648;8.570;2023-09-18T03:04:19;21.10;99.90
3312;DHT22;1668;49.648;8.570;2023-09-18T03:06:47;21.20;99.90
3312;DHT22;1668;49.648;8.570;2023-09-18T03:09:14;21.20;99.90
3312;DHT22;1668;49.648;8.570;2023-09-18T03:11:42;21.20;99.90
3312;DHT22;1668;49.648;8.570;2023-09-18T03:14:10;21.20;99.90
3312;DHT22;1668;49.648;8.570;2023-09-18T03:16:36;21.20;99.90
3312;DHT22;1668;49.648;8.570;2023-09-18T03:19:03;21.20;99.90
3312;DHT22;1668;49.648;8.570;2023-09-18T03:21:30;21.20;99.90
3312;DHT22;1668;49.648;8.570;2023-09-18T03:24:00;21.10;99.90
3312;DHT22;1668;49.648;8.570;2023-09-18T03:26:26;21.10;99.90
3312;DHT22;1668;49.648;8.570;2023-09-18T03:28:53;21.10;99.90
3312;DHT22;1668;49.648;8.570;2023-09-18T03:31:20;21.10;99.90
3312;DHT22;1668;49.648;8.570;2023-09-18T03:33:47;21.10;99.90
3312;DHT22;1668;49.648;8.570;2023-09-18T03:36:13;21.00;99.90
3312;DHT22;1668;49.648;8.570;2023-09-18T03:38:40;21.00;99.90
3312;DHT22;1668;49.648;8.570;2023-09-18T03:41:08;21.00;99.90
3312;DHT22;1668;49.648;8.570;2023-09-18T03:43:35;20.90;99.90
3312;DHT22;1668;49.648;8.570;2023-09-18T03:46:05;20.90;99.90
3312;DHT22;1668;49.648;8.570;2023-09-18T03:48:32;20.90;99.90
3312;DHT22;1668;49.648;8.570;2023-09-18T03:51:03;20.90;99.90
3312;DHT22;1668;49.648;8.570;2023-09-18T03:53:30;20.80;99.90
3312;DHT22;1668;49.648;8.570;2023-09-18T03:55:56;20.80;99.90
3312;DHT22;1668;49.648;8.570;2023-09-18T03:58:24;20.80;99.90
3312;DHT22;1668;49.648;8.570;2023-09-18T04:00:52;20.80;99.90
3312;DHT22;1668;49.648;8.570;2023-09-18T04:03:19;20.80;99.90
3312;DHT22;1668;49.648;8.570;2023-09-18T04:05:45;20.80;99.90
3312;DHT22;1668;49.648;8.570;2023-09-18T04:08:12;20.80;99.90
3312;DHT22;1668;49.648;8.570;2023-09-18T04:10:39;20.80;99.90
3312;DHT22;1668;49.648;8.570;2023-09-18T04:13:06;20.80;99.90
3312;DHT22;1668;49.648;8.570;2023-09-18T04:15:35;20.80;99.90
3312;DHT22;1668;49.648;8.570;2023-09-18T04:18:03;20.80;99.90
3312;DHT22;1668;49.648;8.570;2023-09-18T04:20:31;20.80;99.90
3312;DHT22;1668;49.648;8.570;2023-09-18T04:23:16;20.80;99.90
3312;DHT22;1668;49.648;8.570;2023-09-18T04:25:43;20.80;99.90
3312;DHT22;1668;49.648;8.570;2023-09-18T04:28:11;20.80;99.90
3312;DHT22;1668;49.648;8.570;2023-09-18T04:30:39;20.80;99.90
3312;DHT22;1668;49.648;8.570;2023-09-18T04:33:06;20.80;99.90
3312;DHT22;1668;49.648;8.570;2023-09-18T04:35:33;20.80;99.90
3312;DHT22;1668;49.648;8.570;2023-09-18T04:38:00;20.70;99.90
3312;DHT22;1668;49.648;8.570;2023-09-18T04:40:27;20.70;99.90
3312;DHT22;1668;49.648;8.570;2023-09-18T04:42:57;20.70;99.90
3312;DHT22;1668;49.648;8.570;2023-09-18T04:45:24;20.70;99.90
3312;DHT22;1668;49.648;8.570;2023-09-18T04:47:52;20.70;99.90
3312;DHT22;1668;49.648;8.570;2023-09-18T04:50:19;20.60;99.90
3312;DHT22;1668;49.648;8.570;2023-09-18T04:52:46;20.60;99.90
3312;DHT22;1668;49.648;8.570;2023-09-18T04:55:13;20.50;99.90
3312;DHT22;1668;49.648;8.570;2023-09-18T04:57:40;20.50;99.90
3312;DHT22;1668;49.648;8.570;2023-09-18T05:00:07;20.40;99.90
3312;DHT22;1668;49.648;8.570;2023-09-18T05:02:38;20.40;99.90
3312;DHT22;1668;49.648;8.570;2023-09-18T05:05:07;20.30;99.90
3312;DHT22;1668;49.648;8.570;2023-09-18T05:07:34;20.30;99.90
3312;DHT22;1668;49.648;8.570;2023-09-18T05:10:01;20.30;99.90
3312;DHT22;1668;49.648;8.570;2023-09-18T05:12:30;20.20;99.90
3312;DHT22;1668;49.648;8.570;2023-09-18T05:14:57;20.20;99.90
3312;DHT22;1668;49.648;8.570;2023-09-18T05:17:40;20.20;99.90
3312;DHT22;1668;49.648;8.570;2023-09-18T05:20:10;20.20;99.90
3312;DHT22;1668;49.648;8.570;2023-09-18T05:22:39;20.20;99.90
3312;DHT22;1668;49.648;8.570;2023-09-18T05:25:06;20.20;99.90
3312;DHT22;1668;49.648;8.570;2023-09-18T05:27:33;20.20;99.90
3312;DHT22;1668;49.648;8.570;2023-09-18T05:30:00;20.20;99.90
3312;DHT22;1668;49.648;8.570;2023-09-18T05:32:26;20.20;99.90
3312;DHT22;1668;49.648;8.570;2023-09-18T05:34:53;20.20;99.90
3312;DHT22;1668;49.648;8.570;2023-09-18T05:37:21;20.20;99.90
3312;DHT22;1668;49.648;8.570;2023-09-18T05:39:48;20.10;99.90
3312;DHT22;1668;49.648;8.570;2023-09-18T05:42:15;20.20;99.90
3312;DHT22;1668;49.648;8.570;2023-09-18T05:44:42;20.10;99.90
3312;DHT22;1668;49.648;8.570;2023-09-18T05:47:09;20.10;99.90
3312;DHT22;1668;49.648;8.570;2023-09-18T05:49:35;20.10;99.90
3312;DHT22;1668;49.648;8.570;2023-09-18T05:52:03;20.10;99.90
3312;DHT22;1668;49.648;8.570;2023-09-18T05:54:31;20.10;99.90
3312;DHT22;1668;49.648;8.570;2023-09-18T05:56:57;20.10;99.90
3312;DHT22;1668;49.648;8.570;2023-09-18T05:59:24;20.10;99.90
3312;DHT22;1668;49.648;8.570;2023-09-18T06:01:51;20.10;99.90
3312;DHT22;1668;49.648;8.570;2023-09-18T06:04:19;20.00;99.90
3312;DHT22;1668;49.648;8.570;2023-09-18T06:06:46;20.00;99.90
3312;DHT22;1668;49.648;8.570;2023-09-18T06:09:13;20.00;99.90
3312;DHT22;1668;49.648;8.570;2023-09-18T06:11:41;20.10;99.90
3312;DHT22;1668;49.648;8.570;2023-09-18T06:14:09;20.10;99.90
3312;DHT22;1668;49.648;8.570;2023-09-18T06:16:36;20.10;99.90
3312;DHT22;1668;49.648;8.570;2023-09-18T06:19:03;20.00;99.90
3312;DHT22;1668;49.648;8.570;2023-09-18T06:21:29;20.00;99.90
3312;DHT22;1668;49.648;8.570;2023-09-18T06:23:56;20.00;99.90
3312;DHT22;1668;49.648;8.570;2023-09-18T06:26:23;20.00;99.90
3312;DHT22;1668;49.648;8.570;2023-09-18T06:28:51;20.00;99.90
3312;DHT22;1668;49.648;8.570;2023-09-18T06:31:20;20.00;99.90
3312;DHT22;1668;49.648;8.570;2023-09-18T06:33:49;20.00;99.90
3312;DHT22;1668;49.648;8.570;2023-09-18T06:36:15;20.00;99.90
3312;DHT22;1668;49.648;8.570;2023-09-18T06:38:42;20.00;99.90
3312;DHT22;1668;49.648;8.570;2023-09-18T06:41:09;20.00;99.90
3312;DHT22;1668;49.648;8.570;2023-09-18T06:43:35;20.00;99.90
3312;DHT22;1668;49.648;8.570;2023-09-18T06:46:04;20.00;99.90
3312;DHT22;1668;49.648;8.570;2023-09-18T06:48:30;20.00;99.90
3312;DHT22;1668;49.648;8.570;2023-09-18T06:50:58;20.00;99.90
3312;DHT22;1668;49.648;8.570;2023-09-18T06:53:25;20.00;99.90
3312;DHT22;1668;49.648;8.570;2023-09-18T06:55:52;20.00;99.90
3312;DHT22;1668;49.648;8.570;2023-09-18T06:58:19;20.00;99.90
3312;DHT22;1668;49.648;8.570;2023-09-18T07:00:46;20.10;99.90
3312;DHT22;1668;49.648;8.570;2023-09-18T07:03:14;20.10;99.90
3312;DHT22;1668;49.648;8.570;2023-09-18T07:05:41;20.10;99.90
3312;DHT22;1668;49.648;8.570;2023-09-18T07:08:08;20.10;99.90
3312;DHT22;1668;49.648;8.570;2023-09-18T07:10:37;20.10;99.90
3312;DHT22;1668;49.648;8.570;2023-09-18T07:13:04;20.10;99.90
3312;DHT22;1668;49.648;8.570;2023-09-18T07:15:31;20.10;99.90
3312;DHT22;1668;49.648;8.570;2023-09-18T07:17:57;20.10;99.90
3312;DHT22;1668;49.648;8.570;2023-09-18T07:20:26;20.10;99.90
3312;DHT22;1668;49.648;8.570;2023-09-18T07:22:52;20.10;99.90
3312;DHT22;1668;49.648;8.570;2023-09-18T07:25:19;20.10;99.90
3312;DHT22;1668;49.648;8.570;2023-09-18T07:27:46;20.10;99.90
3312;DHT22;1668;49.648;8.570;2023-09-18T07:30:14;20.10;99.90
3312;DHT22;1668;49.648;8.570;2023-09-18T07:32:43;20.10;99.90
3312;DHT22;1668;49.648;8.570;2023-09-18T07:35:10;20.20;99.90
3312;DHT22;1668;49.648;8.570;2023-09-18T07:37:40;20.20;99.90
3312;DHT22;1668;49.648;8.570;2023-09-18T07:40:07;20.20;99.90
3312;DHT22;1668;49.648;8.570;2023-09-18T07:42:34;20.20;99.90
3312;DHT22;1668;49.648;8.570;2023-09-18T07:45:01;20.30;99.90
3312;DHT22;1668;49.648;8.570;2023-09-18T07:47:28;20.30;99.90
3312;DHT22;1668;49.648;8.570;2023-09-18T07:49:57;20.30;99.90
3312;DHT22;1668;49.648;8.570;2023-09-18T07:52:23;20.40;99.90
3312;DHT22;1668;49.648;8.570;2023-09-18T07:54:51;20.40;99.90
3312;DHT22;1668;49.648;8.570;2023-09-18T07:57:18;20.50;99.90
3312;DHT22;1668;49.648;8.570;2023-09-18T07:59:46;20.60;99.90
3312;DHT22;1668;49.648;8.570;2023-09-18T08:02:13;20.60;99.90
3312;DHT22;1668;49.648;8.570;2023-09-18T08:04:38;20.60;99.90
3312;DHT22;1668;49.648;8.570;2023-09-18T08:07:06;20.70;99.90
3312;DHT22;1668;49.648;8.570;2023-09-18T08:09:33;20.70;99.90
3312;DHT22;1668;49.648;8.570;2023-09-18T08:12:03;20.70;99.90
3312;DHT22;1668;49.648;8.570;2023-09-18T08:14:30;20.80;99.90
3312;DHT22;1668;49.648;8.570;2023-09-18T08:16:57;20.80;99.90
3312;DHT22;1668;49.648;8.570;2023-09-18T08:19:24;20.80;99.90
3312;DHT22;1668;49.648;8.570;2023-09-18T08:21:53;20.80;99.90
3312;DHT22;1668;49.648;8.570;2023-09-18T08:24:21;20.90;99.90
3312;DHT22;1668;49.648;8.570;2023-09-18T08:26:48;20.80;99.90
3312;DHT22;1668;49.648;8.570;2023-09-18T08:29:16;20.90;99.90
3312;DHT22;1668;49.648;8.570;2023-09-18T08:31:43;20.90;99.90
3312;DHT22;1668;49.648;8.570;2023-09-18T08:34:10;20.90;99.90
3312;DHT22;1668;49.648;8.570;2023-09-18T08:36:37;20.90;99.90
3312;DHT22;1668;49.648;8.570;2023-09-18T08:39:04;20.90;99.90
3312;DHT22;1668;49.648;8.570;2023-09-18T08:41:33;20.90;99.90
3312;DHT22;1668;49.648;8.570;2023-09-18T08:44:07;20.90;99.90
3312;DHT22;1668;49.648;8.570;2023-09-18T08:46:37;20.90;99.90
3312;DHT22;1668;49.648;8.570;2023-09-18T08:49:04;21.00;99.90
3312;DHT22;1668;49.648;8.570;2023-09-18T08:51:33;21.00;99.90
3312;DHT22;1668;49.648;8.570;2023-09-18T08:54:01;21.00;99.90
3312;DHT22;1668;49.648;8.570;2023-09-18T08:56:29;21.00;99.90
3312;DHT22;1668;49.648;8.570;2023-09-18T08:58:56;21.00;99.90
3312;DHT22;1668;49.648;8.570;2023-09-18T09:01:25;21.00;99.90
3312;DHT22;1668;49.648;8.570;2023-09-18T09:03:53;21.00;99.90
3312;DHT22;1668;49.648;8.570;2023-09-18T09:06:20;21.00;99.90
3312;DHT22;1668;49.648;8.570;2023-09-18T09:08:47;21.00;99.90
3312;DHT22;1668;49.648;8.570;2023-09-18T09:11:14;21.00;99.90
3312;DHT22;1668;49.648;8.570;2023-09-18T09:13:41;21.10;99.90
3312;DHT22;1668;49.648;8.570;2023-09-18T09:16:11;21.10;99.90
3312;DHT22;1668;49.648;8.570;2023-09-18T09:18:47;21.10;99.90
3312;DHT22;1668;49.648;8.570;2023-09-18T09:21:15;21.10;99.90
3312;DHT22;1668;49.648;8.570;2023-09-18T09:23:49;21.20;99.90
3312;DHT22;1668;49.648;8.570;2023-09-18T09:26:17;21.20;99.90
3312;DHT22;1668;49.648;8.570;2023-09-18T09:28:45;21.20;99.90
3312;DHT22;1668;49.648;8.570;2023-09-18T09:31:23;21.20;99.90
3312;DHT22;1668;49.648;8.570;2023-09-18T09:33:51;21.30;99.90
3312;DHT22;1668;49.648;8.570;2023-09-18T09:36:21;21.30;99.90
3312;DHT22;1668;49.648;8.570;2023-09-18T09:38:48;21.30;99.90
3312;DHT22;1668;49.648;8.570;2023-09-18T09:41:15;21.30;99.90
3312;DHT22;1668;49.648;8.570;2023-09-18T09:43:43;21.30;99.90
3312;DHT22;1668;49.648;8.570;2023-09-18T09:46:15;21.30;99.90
3312;DHT22;1668;49.648;8.570;2023-09-18T09:48:58;21.30;99.90
3312;DHT22;1668;49.648;8.570;2023-09-18T09:51:28;21.30;99.90
3312;DHT22;1668;49.648;8.570;2023-09-18T09:53:55;21.30;99.90
3312;DHT22;1668;49.648;8.570;2023-09-18T09:56:40;21.30;99.90
3312;DHT22;1668;49.648;8.570;2023-09-18T09:59:07;21.30;99.90
3312;DHT22;1668;49.648;8.570;2023-09-18T10:01:34;21.30;99.90
3312;DHT22;1668;49.648;8.570;2023-09-18T10:04:04;21.30;99.90
3312;DHT22;1668;49.648;8.570;2023-09-18T10:06:34;21.30;99.90
3312;DHT22;1668;49.648;8.570;2023-09-18T10:09:02;21.40;99.90
3312;DHT22;1668;49.648;8.570;2023-09-18T10:11:30;21.30;99.90
3312;DHT22;1668;49.648;8.570;2023-09-18T10:14:00;21.30;99.90
3312;DHT22;1668;49.648;8.570;2023-09-18T10:16:30;21.40;99.90
3312;DHT22;1668;49.648;8.570;2023-09-18T10:19:17;21.40;99.90
3312;DHT22;1668;49.648;8.570;2023-09-18T10:21:53;21.50;99.90
3312;DHT22;1668;49.648;8.570;2023-09-18T10:24:28;21.50;99.90
3312;DHT22;1668;49.648;8.570;2023-09-18T10:26:57;21.60;99.90
3312;DHT22;1668;49.648;8.570;2023-09-18T10:29:24;21.60;99.90
3312;DHT22;1668;49.648;8.570;2023-09-18T10:31:52;21.60;99.90
3312;DHT22;1668;49.648;8.570;2023-09-18T10:34:19;21.60;99.90
3312;DHT22;1668;49.648;8.570;2023-09-18T10:36:49;21.70;99.90
3312;DHT22;1668;49.648;8.570;2023-09-18T10:39:17;21.70;99.90
3312;DHT22;1668;49.648;8.570;2023-09-18T10:41:47;21.70;99.90
3312;DHT22;1668;49.648;8.570;2023-09-18T10:44:14;21.80;99.90
3312;DHT22;1668;49.648;8.570;2023-09-18T10:46:42;21.80;99.90
3312;DHT22;1668;49.648;8.570;2023-09-18T10:49:09;21.80;99.90
3312;DHT22;1668;49.648;8.570;2023-09-18T10:51:37;21.90;99.90
3312;DHT22;1668;49.648;8.570;2023-09-18T10:54:10;22.00;99.90
3312;DHT22;1668;49.648;8.570;2023-09-18T10:56:37;22.10;99.90
3312;DHT22;1668;49.648;8.570;2023-09-18T10:59:06;22.10;99.90
3312;DHT22;1668;49.648;8.570;2023-09-18T11:01:35;22.10;99.90
3312;DHT22;1668;49.648;8.570;2023-09-18T11:04:05;22.30;99.90
3312;DHT22;1668;49.648;8.570;2023-09-18T11:07:01;22.40;99.90
3312;DHT22;1668;49.648;8.570;2023-09-18T11:09:40;22.50;99.90
3312;DHT22;1668;49.648;8.570;2023-09-18T11:12:08;22.60;99.90
3312;DHT22;1668;49.648;8.570;2023-09-18T11:14:47;22.70;99.90
3312;DHT22;1668;49.648;8.570;2023-09-18T11:17:30;22.70;99.90
3312;DHT22;1668;49.648;8.570;2023-09-18T11:20:06;22.70;99.90
3312;DHT22;1668;49.648;8.570;2023-09-18T11:22:39;22.70;99.90
3312;DHT22;1668;49.648;8.570;2023-09-18T11:25:30;22.70;99.90
3312;DHT22;1668;49.648;8.570;2023-09-18T11:28:00;22.80;99.90
3312;DHT22;1668;49.648;8.570;2023-09-18T11:30:27;22.70;99.90
3312;DHT22;1668;49.648;8.570;2023-09-18T11:32:55;22.70;99.90
3312;DHT22;1668;49.648;8.570;2023-09-18T11:35:22;22.70;99.90
3312;DHT22;1668;49.648;8.570;2023-09-18T11:38:04;22.70;99.90
3312;DHT22;1668;49.648;8.570;2023-09-18T11:40:34;22.70;99.90
3312;DHT22;1668;49.648;8.570;2023-09-18T11:43:24;22.70;99.90
3312;DHT22;1668;49.648;8.570;2023-09-18T11:45:52;22.80;99.90
3312;DHT22;1668;49.648;8.570;2023-09-18T11:48:21;22.90;99.90
3312;DHT22;1668;49.648;8.570;2023-09-18T11:50:49;22.90;99.90
3312;DHT22;1668;49.648;8.570;2023-09-18T11:53:16;23.00;99.90
3312;DHT22;1668;49.648;8.570;2023-09-18T11:55:46;23.00;99.90
3312;DHT22;1668;49.648;8.570;2023-09-18T11:58:13;23.10;99.90
3312;DHT22;1668;49.648;8.570;2023-09-18T12:00:40;23.10;99.90
3312;DHT22;1668;49.648;8.570;2023-09-18T12:03:16;23.10;99.90
3312;DHT22;1668;49.648;8.570;2023-09-18T12:05:52;23.10;99.90
3312;DHT22;1668;49.648;8.570;2023-09-18T12:08:20;23.10;99.90
3312;DHT22;1668;49.648;8.570;2023-09-18T12:10:52;23.10;99.90
3312;DHT22;1668;49.648;8.570;2023-09-18T12:13:19;23.00;99.90
3312;DHT22;1668;49.648;8.570;2023-09-18T12:15:47;23.00;99.90
3312;DHT22;1668;49.648;8.570;2023-09-18T12:18:15;23.00;99.90
3312;DHT22;1668;49.648;8.570;2023-09-18T12:20:47;22.90;99.90
3312;DHT22;1668;49.648;8.570;2023-09-18T12:23:14;23.00;99.90
3312;DHT22;1668;49.648;8.570;2023-09-18T12:25:41;23.00;99.90
3312;DHT22;1668;49.648;8.570;2023-09-18T12:28:13;23.00;99.90
3312;DHT22;1668;49.648;8.570;2023-09-18T12:30:41;23.00;99.90
3312;DHT22;1668;49.648;8.570;2023-09-18T12:33:07;23.00;99.90
3312;DHT22;1668;49.648;8.570;2023-09-18T12:35:34;23.00;99.90
3312;DHT22;1668;49.648;8.570;2023-09-18T12:38:01;23.00;99.90
3312;DHT22;1668;49.648;8.570;2023-09-18T12:40:31;23.00;99.90
3312;DHT22;1668;49.648;8.570;2023-09-18T12:42:59;22.90;99.90
3312;DHT22;1668;49.648;8.570;2023-09-18T12:45:29;22.90;99.90
3312;DHT22;1668;49.648;8.570;2023-09-18T12:47:57;23.00;99.90
3312;DHT22;1668;49.648;8.570;2023-09-18T12:50:24;23.00;99.90
3312;DHT22;1668;49.648;8.570;2023-09-18T12:52:51;23.00;99.90
3312;DHT22;1668;49.648;8.570;2023-09-18T12:55:22;23.00;99.90
3312;DHT22;1668;49.648;8.570;2023-09-18T12:57:50;23.00;99.90
3312;DHT22;1668;49.648;8.570;2023-09-18T13:00:18;23.10;99.90
3312;DHT22;1668;49.648;8.570;2023-09-18T13:02:48;23.10;99.90
3312;DHT22;1668;49.648;8.570;2023-09-18T13:05:20;23.10;99.90
3312;DHT22;1668;49.648;8.570;2023-09-18T13:07:46;23.10;99.90
3312;DHT22;1668;49.648;8.570;2023-09-18T13:10:14;23.20;99.90
3312;DHT22;1668;49.648;8.570;2023-09-18T13:12:42;23.20;99.90
3312;DHT22;1668;49.648;8.570;2023-09-18T13:15:10;23.30;99.90
3312;DHT22;1668;49.648;8.570;2023-09-18T13:17:42;23.40;99.90
3312;DHT22;1668;49.648;8.570;2023-09-18T13:20:14;23.30;99.90
3312;DHT22;1668;49.648;8.570;2023-09-18T13:22:41;23.40;99.90
3312;DHT22;1668;49.648;8.570;2023-09-18T13:25:09;23.40;99.90
3312;DHT22;1668;49.648;8.570;2023-09-18T13:27:37;23.40;99.90
3312;DHT22;1668;49.648;8.570;2023-09-18T13:30:06;23.40;99.90
3312;DHT22;1668;49.648;8.570;2023-09-18T13:32:34;23.30;99.90
3312;DHT22;1668;49.648;8.570;2023-09-18T13:35:02;23.30;99.90
3312;DHT22;1668;49.648;8.570;2023-09-18T13:37:32;23.30;99.90
3312;DHT22;1668;49.648;8.570;2023-09-18T13:39:59;23.40;99.90
3312;DHT22;1668;49.648;8.570;2023-09-18T13:42:28;23.40;99.90
3312;DHT22;1668;49.648;8.570;2023-09-18T13:44:57;23.50;99.90
3312;DHT22;1668;49.648;8.570;2023-09-18T13:47:24;23.50;99.90
3312;DHT22;1668;49.648;8.570;2023-09-18T13:49:51;23.60;99.90
3312;DHT22;1668;49.648;8.570;2023-09-18T13:52:18;23.50;99.90
3312;DHT22;1668;49.648;8.570;2023-09-18T13:54:47;23.50;99.90
3312;DHT22;1668;49.648;8.570;2023-09-18T13:57:16;23.50;99.90
3312;DHT22;1668;49.648;8.570;2023-09-18T13:59:44;23.60;99.90
3312;DHT22;1668;49.648;8.570;2023-09-18T14:02:11;23.90;99.90
3312;DHT22;1668;49.648;8.570;2023-09-18T14:04:38;23.90;98.60
3312;DHT22;1668;49.648;8.570;2023-09-18T14:07:05;24.00;99.90
3312;DHT22;1668;49.648;8.570;2023-09-18T14:09:32;24.00;97.20
3312;DHT22;1668;49.648;8.570;2023-09-18T14:12:00;23.90;97.60
3312;DHT22;1668;49.648;8.570;2023-09-18T14:14:28;23.80;97.90
3312;DHT22;1668;49.648;8.570;2023-09-18T14:16:55;23.70;97.30
3312;DHT22;1668;49.648;8.570;2023-09-18T14:19:22;23.80;97.80
3312;DHT22;1668;49.648;8.570;2023-09-18T14:21:49;23.70;99.60
3312;DHT22;1668;49.648;8.570;2023-09-18T14:24:17;23.80;98.60
3312;DHT22;1668;49.648;8.570;2023-09-18T14:26:47;24.10;97.40
3312;DHT22;1668;49.648;8.570;2023-09-18T14:29:15;24.40;94.70
3312;DHT22;1668;49.648;8.570;2023-09-18T14:31:42;24.60;94.40
3312;DHT22;1668;49.648;8.570;2023-09-18T14:34:09;24.90;92.70
3312;DHT22;1668;49.648;8.570;2023-09-18T14:36:36;25.10;90.70
3312;DHT22;1668;49.648;8.570;2023-09-18T14:39:04;25.20;88.60
3312;DHT22;1668;49.648;8.570;2023-09-18T14:41:33;25.30;90.70
3312;DHT22;1668;49.648;8.570;2023-09-18T14:44:00;25.40;85.40
3312;DHT22;1668;49.648;8.570;2023-09-18T14:46:30;25.20;89.10
3312;DHT22;1668;49.648;8.570;2023-09-18T14:48:58;25.50;85.90
3312;DHT22;1668;49.648;8.570;2023-09-18T14:51:25;25.40;85.70
3312;DHT22;1668;49.648;8.570;2023-09-18T14:53:53;25.40;84.10
3312;DHT22;1668;49.648;8.570;2023-09-18T14:56:20;25.10;86.30
3312;DHT22;1668;49.648;8.570;2023-09-18T14:58:47;24.90;85.40
3312;DHT22;1668;49.648;8.570;2023-09-18T15:01:15;25.00;85.60
3312;DHT22;1668;49.648;8.570;2023-09-18T15:03:43;25.20;85.50
3312;DHT22;1668;49.648;8.570;2023-09-18T15:06:11;25.30;85.30
3312;DHT22;1668;49.648;8.570;2023-09-18T15:08:38;25.50;82.50
3312;DHT22;1668;49.648;8.570;2023-09-18T15:11:04;25.50;82.10
3312;DHT22;1668;49.648;8.570;2023-09-18T15:13:31;25.50;83.50
3312;DHT22;1668;49.648;8.570;2023-09-18T15:16:00;25.50;81.90
3312;DHT22;1668;49.648;8.570;2023-09-18T15:18:27;25.40;81.00
3312;DHT22;1668;49.648;8.570;2023-09-18T15:20:55;25.10;82.10
3312;DHT22;1668;49.648;8.570;2023-09-18T15:23:22;25.00;81.50
3312;DHT22;1668;49.648;8.570;2023-09-18T15:25:49;25.00;83.40
3312;DHT22;1668;49.648;8.570;2023-09-18T15:28:16;24.90;83.20
3312;DHT22;1668;49.648;8.570;2023-09-18T15:30:43;24.80;83.10
3312;DHT22;1668;49.648;8.570;2023-09-18T15:33:10;24.70;84.10
3312;DHT22;1668;49.648;8.570;2023-09-18T15:35:37;24.60;84.90
3312;DHT22;1668;49.648;8.570;2023-09-18T15:38:05;24.60;86.00
3312;DHT22;1668;49.648;8.570;2023-09-18T15:40:33;24.50;86.40
3312;DHT22;1668;49.648;8.570;2023-09-18T15:43:00;24.40;84.50
3312;DHT22;1668;49.648;8.570;2023-09-18T15:45:27;24.40;87.10
3312;DHT22;1668;49.648;8.570;2023-09-18T15:47:54;24.40;85.40
3312;DHT22;1668;49.648;8.570;2023-09-18T15:50:21;24.40;84.60
3312;DHT22;1668;49.648;8.570;2023-09-18T15:52:49;24.40;85.70
3312;DHT22;1668;49.648;8.570;2023-09-18T15:55:17;24.20;86.30
3312;DHT22;1668;49.648;8.570;2023-09-18T15:57:44;24.20;86.70
3312;DHT22;1668;49.648;8.570;2023-09-18T16:00:11;24.20;87.50
3312;DHT22;1668;49.648;8.570;2023-09-18T16:02:39;24.10;87.50
3312;DHT22;1668;49.648;8.570;2023-09-18T16:05:07;24.10;89.00
3312;DHT22;1668;49.648;8.570;2023-09-18T16:07:35;24.10;87.80
3312;DHT22;1668;49.648;8.570;2023-09-18T16:10:04;24.10;88.70